Impacts TAF Board INFO
IDs:

KMDW - Chicago/Midway Intl, IL, US

Issued at 2327 UTC 03 Dec 2016
Updated at 2352 UTC 03 Dec 2016
Potential Impact None Slight Moderate High
Time2253Z 04/00Z 04/01Z 04/02Z 04/03Z 04/04Z 04/05Z 04/06Z 04/07Z 04/08Z 04/09Z 04/10Z 04/11Z 04/12Z
Type OBS PRVL PRVL PRVL PRVL PRVL PRVL PRVL PRVL PRVL PRVL PRVL PRVL PRVL
VIS 10 >6 >6 >6 >6 >6 >6 >6 >6 >6 >6 >6 >6 6
CIG -- 35 35 35 35 35 35 35 35 35 35 35 35 60
Cover SCT OVC OVC OVC OVC OVC OVC OVC OVC OVC OVC OVC OVC OVC
FltCat VFR VFR VFR VFR VFR VFR VFR VFR VFR VFR VFR VFR VFR VFR
WX -- -- -- -- -- -- -- -- -- -- -- -- -- -SN
WDir VRB 240 240 240 240 240 240 240 240 240 240 240 240 180
WSpd 0 3 3 3 3 3 3 3 3 3 3 3 3 5
WGst -- -- -- -- -- -- -- -- -- -- -- -- -- --

Raw TAF
KMDW 032327Z 0400/0424 24003KT P6SM OVC035
  FM041200 18005KT 6SM -SN OVC060
  FM041400 17006KT 3SM -SN BKN025 OVC050
  FM041530 17007KT 1SM -SN SCT007 OVC015
  FM041700 17008KT 1SM -SN BR OVC005
  TEMPO 0418/0421 3/4SM -SN BR OVC004
  FM042200 18008KT 3SM -SN BR OVC005


Raw METAR
KMDW 032253Z 00000KT 10SM SCT031 SCT036 01/M06 A3031 RMK AO2 SLP274 T00061056
KMDW 032213Z 28004KT 10SM SCT031 BKN036 01/M06 A3033 RMK AO2 T00061056
KMDW 032153Z 26006KT 10SM BKN028 BKN035 01/M05 A3033 RMK AO2 SLP281 T00111050
KMDW 032053Z 28007KT 10SM BKN026 01/M05 A3034 RMK AO2 SLP285 T00111050 55005

METAR Board
Radar Display
Forecast Discussion